Time;durP1;ratioP1;P1;durP2;ratioP2;P2;SDS_P1;SDS_P2;PMS_P1;PMS_P2;Temp;Humidity;BMP_temperature;BMP_pressure;BME280_temperature;BME280_humidity;BME280_pressure;Samples;Min_cycle;Max_cycle;Signal;HPM_P1;HPM_P2
2023/06/03 00:01:18;;;;;;;2.17;2.00;;;17.70;99.90;;;;;;5094154;28;20253;-76
2023/06/03 00:03:46;;;;;;;2.58;2.38;;;17.70;99.90;;;;;;5091752;28;20300;-76
2023/06/03 00:06:13;;;;;;;2.55;2.35;;;17.70;99.90;;;;;;5092921;28;20298;-76
2023/06/03 00:08:42;;;;;;;2.95;2.00;;;17.80;99.90;;;;;;5096964;28;20568;-75
2023/06/03 00:11:09;;;;;;;2.53;2.33;;;17.80;99.90;;;;;;5092761;28;20785;-76
2023/06/03 00:13:36;;;;;;;2.55;2.35;;;17.80;99.90;;;;;;5091904;28;20598;-75
2023/06/03 00:16:03;;;;;;;2.35;2.15;;;17.80;99.90;;;;;;5091125;28;20293;-75
2023/06/03 00:18:31;;;;;;;2.35;2.22;;;17.90;99.90;;;;;;5094868;28;20221;-76
2023/06/03 00:20:58;;;;;;;2.20;2.05;;;17.90;99.90;;;;;;5094696;28;20218;-75
2023/06/03 00:23:26;;;;;;;2.45;2.28;;;17.80;99.90;;;;;;5089694;28;20305;-75
2023/06/03 00:25:53;;;;;;;2.20;2.00;;;17.70;99.90;;;;;;5089505;28;20205;-75
2023/06/03 00:28:20;;;;;;;2.40;2.22;;;17.70;99.90;;;;;;5091512;28;20220;-77
2023/06/03 00:30:47;;;;;;;2.20;2.00;;;17.60;99.90;;;;;;5093361;28;20215;-76
2023/06/03 00:33:14;;;;;;;2.67;2.47;;;17.60;99.90;;;;;;5098151;28;20225;-76
2023/06/03 00:35:42;;;;;;;2.78;2.08;;;17.60;99.90;;;;;;5099068;28;20202;-76
2023/06/03 00:38:09;;;;;;;2.38;2.20;;;17.70;99.90;;;;;;5097524;27;20258;-75
2023/06/03 00:40:36;;;;;;;2.13;1.98;;;17.60;99.90;;;;;;5100331;27;20240;-75
2023/06/03 00:43:03;;;;;;;2.10;2.00;;;17.60;99.90;;;;;;5092738;28;20221;-76
2023/06/03 00:45:30;;;;;;;2.50;2.30;;;17.60;99.90;;;;;;5097640;28;20243;-76
2023/06/03 00:47:57;;;;;;;2.40;2.20;;;17.60;99.90;;;;;;5093984;28;20276;-76
2023/06/03 00:50:25;;;;;;;1.90;1.80;;;17.60;99.90;;;;;;5097322;27;20292;-76
2023/06/03 00:52:54;;;;;;;2.10;2.00;;;17.60;99.90;;;;;;5092198;28;20217;-75
2023/06/03 00:55:21;;;;;;;2.00;1.77;;;17.60;99.90;;;;;;5096729;28;20728;-75
2023/06/03 00:57:50;;;;;;;2.30;1.90;;;17.50;99.90;;;;;;5098777;28;20714;-75
2023/06/03 01:00:17;;;;;;;2.00;1.90;;;17.50;99.90;;;;;;5097564;27;20204;-76
2023/06/03 01:02:44;;;;;;;2.03;1.92;;;17.40;99.90;;;;;;5096462;28;20251;-75
2023/06/03 01:05:11;;;;;;;2.00;1.90;;;17.50;99.90;;;;;;5099440;28;20205;-76
2023/06/03 01:07:46;;;;;;;2.10;2.00;;;17.50;99.90;;;;;;5096207;28;20225;-76
2023/06/03 01:10:21;;;;;;;2.30;2.03;;;17.50;99.90;;;;;;5100462;27;20196;-75
2023/06/03 01:12:54;;;;;;;2.30;2.20;;;17.50;99.90;;;;;;5094284;28;20234;-77
2023/06/03 01:15:23;;;;;;;2.08;1.90;;;17.40;99.90;;;;;;5094605;28;20237;-76
2023/06/03 01:17:53;;;;;;;2.22;2.10;;;17.40;99.90;;;;;;5096746;28;20201;-75
2023/06/03 01:20:26;;;;;;;1.90;1.80;;;17.30;99.90;;;;;;5095844;27;20300;-74
2023/06/03 01:22:58;;;;;;;2.08;1.98;;;17.30;99.90;;;;;;5096545;28;20221;-76
2023/06/03 01:25:26;;;;;;;1.92;1.83;;;17.30;99.90;;;;;;5097647;28;20235;-75
2023/06/03 01:27:57;;;;;;;2.00;1.90;;;17.30;99.90;;;;;;5093284;28;20189;-75
2023/06/03 01:30:24;;;;;;;2.40;2.20;;;17.20;99.90;;;;;;5093831;27;20200;-75
2023/06/03 01:32:52;;;;;;;2.05;1.95;;;17.20;99.90;;;;;;5098171;28;20217;-76
2023/06/03 01:35:20;;;;;;;2.53;2.33;;;17.20;99.90;;;;;;5093698;28;20293;-73
2023/06/03 01:37:47;;;;;;;2.28;2.08;;;17.10;99.90;;;;;;5092608;28;20219;-76
2023/06/03 01:40:15;;;;;;;2.17;2.08;;;17.10;99.90;;;;;;5099322;27;20773;-75
2023/06/03 01:42:43;;;;;;;2.13;2.03;;;17.10;99.90;;;;;;5096637;27;20213;-75
2023/06/03 01:45:11;;;;;;;2.42;2.25;;;17.00;99.90;;;;;;5096809;28;20193;-75
2023/06/03 01:47:38;;;;;;;2.13;2.03;;;17.00;99.90;;;;;;5089878;28;20293;-75
2023/06/03 01:50:06;;;;;;;2.05;1.90;;;17.00;99.90;;;;;;5096949;28;20276;-75
2023/06/03 01:52:33;;;;;;;2.58;2.38;;;16.90;99.90;;;;;;5095510;28;20710;-75
2023/06/03 01:55:00;;;;;;;2.40;2.20;;;16.90;99.90;;;;;;5103214;28;20232;-76
2023/06/03 01:57:27;;;;;;;2.40;2.20;;;16.90;99.90;;;;;;5111009;28;20201;-76
2023/06/03 01:59:55;;;;;;;2.20;2.10;;;16.90;99.90;;;;;;5123760;27;20201;-77
2023/06/03 02:02:22;;;;;;;2.42;2.22;;;16.90;99.90;;;;;;5112360;27;20515;-76
2023/06/03 02:04:51;;;;;;;2.40;2.30;;;16.90;99.90;;;;;;5118098;28;20205;-76
2023/06/03 02:07:18;;;;;;;2.30;2.10;;;16.90;99.90;;;;;;5109598;28;20206;-75
2023/06/03 02:09:45;;;;;;;1.90;1.80;;;16.90;99.90;;;;;;5106860;28;20194;-75
2023/06/03 02:12:12;;;;;;;2.00;1.90;;;16.90;99.90;;;;;;5099151;28;20753;-75
2023/06/03 02:14:39;;;;;;;2.03;1.92;;;16.90;99.90;;;;;;5101131;28;20197;-75
2023/06/03 02:17:08;;;;;;;1.98;1.88;;;16.80;99.90;;;;;;5095340;28;20639;-74
2023/06/03 02:19:35;;;;;;;1.90;1.80;;;16.80;99.90;;;;;;5101407;28;20208;-76
2023/06/03 02:22:02;;;;;;;2.45;2.25;;;16.90;99.90;;;;;;5095325;27;20740;-75
2023/06/03 02:24:31;;;;;;;2.00;1.90;;;16.90;99.90;;;;;;5119184;28;20218;-76
2023/06/03 02:27:01;;;;;;;2.63;2.42;;;16.90;99.90;;;;;;5126008;28;20201;-76
2023/06/03 02:29:29;;;;;;;2.17;2.08;;;16.90;99.90;;;;;;5121835;28;20258;-75
2023/06/03 02:31:57;;;;;;;2.58;2.38;;;16.80;99.90;;;;;;5118178;28;20216;-75
2023/06/03 02:34:25;;;;;;;2.47;2.28;;;16.80;99.90;;;;;;5120132;28;20205;-75
2023/06/03 02:36:52;;;;;;;2.55;2.35;;;16.70;99.90;;;;;;5122901;28;20196;-76
2023/06/03 02:39:20;;;;;;;2.42;2.22;;;16.80;99.90;;;;;;5116058;28;20208;-76
2023/06/03 02:41:48;;;;;;;2.10;1.90;;;16.80;99.90;;;;;;5115749;28;20232;-76
2023/06/03 02:44:15;;;;;;;2.30;2.10;;;16.70;99.90;;;;;;5118112;28;20205;-76
2023/06/03 02:46:42;;;;;;;2.45;2.30;;;16.80;99.90;;;;;;5114425;28;20701;-76
2023/06/03 02:49:10;;;;;;;2.67;2.47;;;16.70;99.90;;;;;;5090903;28;20868;-75
2023/06/03 02:51:39;;;;;;;2.28;2.15;;;16.70;99.90;;;;;;5094793;27;20229;-75
2023/06/03 02:54:06;;;;;;;2.50;2.30;;;16.70;99.90;;;;;;5088232;28;20231;-75
2023/06/03 02:56:34;;;;;;;2.38;2.17;;;16.70;99.90;;;;;;5096062;28;20211;-75
2023/06/03 02:59:01;;;;;;;2.30;2.20;;;16.70;99.90;;;;;;5088457;28;20291;-75
2023/06/03 03:01:28;;;;;;;2.80;2.40;;;16.70;99.90;;;;;;5101042;27;20217;-75
2023/06/03 03:03:55;;;;;;;2.47;2.28;;;16.70;99.90;;;;;;5093366;28;20711;-75
2023/06/03 03:06:24;;;;;;;2.60;2.40;;;16.70;99.90;;;;;;5092257;28;20292;-76
2023/06/03 03:08:53;;;;;;;2.10;2.00;;;16.70;99.90;;;;;;5089693;28;20238;-76
2023/06/03 03:11:20;;;;;;;2.45;2.20;;;16.70;99.90;;;;;;5094283;27;20333;-74
2023/06/03 03:13:47;;;;;;;2.92;2.65;;;16.60;99.90;;;;;;5092769;28;20300;-76
2023/06/03 03:16:15;;;;;;;2.70;2.50;;;16.60;99.90;;;;;;5093948;28;20229;-76
2023/06/03 03:18:42;;;;;;;2.72;2.53;;;16.60;99.90;;;;;;5096073;28;20607;-75
2023/06/03 03:21:09;;;;;;;2.22;2.13;;;16.60;99.90;;;;;;5095308;28;20651;-75
2023/06/03 03:23:36;;;;;;;2.50;2.30;;;16.60;99.90;;;;;;5093840;28;20726;-76
2023/06/03 03:26:08;;;;;;;2.60;2.40;;;16.60;99.90;;;;;;5092457;27;20243;-75
2023/06/03 03:28:36;;;;;;;2.00;1.90;;;16.60;99.90;;;;;;5096120;28;20192;-75
2023/06/03 03:31:04;;;;;;;2.45;2.25;;;16.60;99.90;;;;;;5094443;28;20288;-74
2023/06/03 03:33:31;;;;;;;2.50;2.30;;;16.60;99.90;;;;;;5088182;28;20221;-76
2023/06/03 03:36:08;;;;;;;2.20;2.05;;;16.60;99.90;;;;;;5094456;28;20205;-76
2023/06/03 03:38:37;;;;;;;2.67;2.47;;;16.60;99.90;;;;;;5098463;28;20205;-75
2023/06/03 03:41:06;;;;;;;2.47;2.28;;;16.60;99.90;;;;;;5103031;28;20283;-76
2023/06/03 03:43:33;;;;;;;2.38;2.28;;;16.60;99.90;;;;;;5100982;28;20898;-75
2023/06/03 03:46:00;;;;;;;2.28;2.17;;;16.60;99.90;;;;;;5092217;28;20223;-75
2023/06/03 03:48:29;;;;;;;2.58;2.38;;;16.60;99.90;;;;;;5096062;28;20200;-75
2023/06/03 03:50:57;;;;;;;2.53;2.38;;;16.60;99.90;;;;;;5098937;28;20204;-75
2023/06/03 03:53:30;;;;;;;2.35;2.17;;;16.60;99.90;;;;;;5091289;28;20819;-76
2023/06/03 03:55:57;;;;;;;2.50;2.30;;;16.60;99.90;;;;;;5097237;28;20193;-76
2023/06/03 03:58:28;;;;;;;2.10;2.00;;;16.60;99.90;;;;;;5099817;28;20197;-77
2023/06/03 04:00:57;;;;;;;2.28;2.17;;;16.60;99.90;;;;;;5102055;28;20196;-77
2023/06/03 04:03:25;;;;;;;2.30;2.20;;;16.60;99.90;;;;;;5107977;28;20220;-77
2023/06/03 04:05:53;;;;;;;3.00;2.63;;;16.70;99.90;;;;;;5096504;28;20240;-77
2023/06/03 04:08:39;;;;;;;2.40;2.13;;;16.80;99.90;;;;;;5105341;28;20201;-78
2023/06/03 04:11:08;;;;;;;2.47;2.28;;;16.90;99.90;;;;;;5103579;28;20746;-77
2023/06/03 04:13:38;;;;;;;2.72;2.53;;;16.90;99.90;;;;;;5108591;28;20268;-77
2023/06/03 04:16:10;;;;;;;2.63;2.38;;;16.90;99.90;;;;;;5096557;28;20213;-77
2023/06/03 04:18:43;;;;;;;2.85;2.10;;;17.00;99.90;;;;;;5103221;28;20200;-77
2023/06/03 04:21:15;;;;;;;2.40;2.20;;;17.00;99.90;;;;;;5101711;28;20711;-78
2023/06/03 04:23:42;;;;;;;2.50;2.30;;;16.90;99.90;;;;;;5105359;28;20223;-77
2023/06/03 04:26:10;;;;;;;3.55;2.50;;;17.00;99.90;;;;;;5100951;28;20197;-78
2023/06/03 04:28:40;;;;;;;3.10;2.80;;;16.90;99.90;;;;;;5106821;28;20211;-77
2023/06/03 04:31:07;;;;;;;2.97;2.70;;;16.90;99.90;;;;;;5102806;28;20275;-78
2023/06/03 04:33:34;;;;;;;2.90;2.70;;;16.90;99.90;;;;;;5106941;28;20221;-78
2023/06/03 04:36:01;;;;;;;2.42;2.22;;;16.80;99.90;;;;;;5102002;28;20250;-78
2023/06/03 04:38:28;;;;;;;2.50;2.30;;;16.70;99.90;;;;;;5096148;28;20197;-78
2023/06/03 04:40:55;;;;;;;2.80;2.60;;;16.50;99.90;;;;;;5100862;28;20198;-77
2023/06/03 04:43:22;;;;;;;3.15;2.85;;;16.50;99.90;;;;;;5103707;28;20278;-77
2023/06/03 04:45:53;;;;;;;2.95;2.75;;;16.40;99.90;;;;;;5102621;28;20276;-77
2023/06/03 04:48:22;;;;;;;2.47;2.35;;;16.40;99.90;;;;;;5099665;28;20204;-77
2023/06/03 04:50:49;;;;;;;3.30;2.72;;;16.40;99.90;;;;;;5100335;28;20205;-77
2023/06/03 04:53:16;;;;;;;4.35;3.22;;;16.40;99.90;;;;;;5097546;28;20656;-77
2023/06/03 04:55:44;;;;;;;3.38;2.47;;;16.50;99.90;;;;;;5105167;28;20197;-77
2023/06/03 04:58:11;;;;;;;2.90;2.67;;;16.50;99.90;;;;;;5099065;28;20196;-78
2023/06/03 05:00:40;;;;;;;3.05;2.42;;;16.50;99.90;;;;;;5102421;28;20761;-78
2023/06/03 05:03:09;;;;;;;2.55;2.35;;;16.50;99.90;;;;;;5099869;28;20228;-77
2023/06/03 05:05:41;;;;;;;2.35;2.10;;;16.60;99.90;;;;;;5105303;28;20257;-77
2023/06/03 05:08:09;;;;;;;2.97;2.38;;;16.70;99.90;;;;;;5112753;27;20280;-77
2023/06/03 05:10:36;;;;;;;2.25;2.05;;;16.90;99.90;;;;;;5103608;27;20567;-78
2023/06/03 05:13:03;;;;;;;2.22;2.13;;;17.30;99.90;;;;;;5103353;28;20296;-78
2023/06/03 05:15:33;;;;;;;2.60;2.40;;;17.50;99.90;;;;;;5105255;28;20209;-77
2023/06/03 05:18:00;;;;;;;2.67;2.33;;;17.70;99.90;;;;;;5098933;28;20619;-77
2023/06/03 05:20:29;;;;;;;3.15;2.92;;;17.80;99.90;;;;;;5103247;28;20232;-78
2023/06/03 05:22:55;;;;;;;2.60;2.40;;;17.80;99.90;;;;;;5103071;27;20270;-77
2023/06/03 05:25:23;;;;;;;2.83;2.63;;;17.80;99.90;;;;;;5102426;28;20209;-77
2023/06/03 05:27:50;;;;;;;2.53;2.33;;;18.00;99.90;;;;;;5095816;28;20703;-78
2023/06/03 05:30:18;;;;;;;2.90;2.70;;;18.30;99.90;;;;;;5095909;28;20216;-77
2023/06/03 05:32:45;;;;;;;2.30;2.20;;;18.60;99.90;;;;;;5096685;28;20308;-78
2023/06/03 05:35:12;;;;;;;3.97;2.80;;;18.70;99.90;;;;;;5103281;28;20278;-77
2023/06/03 05:37:40;;;;;;;2.63;2.42;;;18.90;99.90;;;;;;5107921;28;20228;-77
2023/06/03 05:40:08;;;;;;;2.40;2.20;;;18.90;99.90;;;;;;5102804;28;20261;-77
2023/06/03 05:42:35;;;;;;;2.83;2.63;;;18.80;99.90;;;;;;5099245;27;20213;-77
2023/06/03 05:45:03;;;;;;;3.00;2.80;;;18.90;99.90;;;;;;5106488;28;20221;-78
2023/06/03 05:47:30;;;;;;;2.67;2.42;;;18.90;99.90;;;;;;5105701;28;20208;-78
2023/06/03 05:49:57;;;;;;;3.53;3.03;;;18.80;99.90;;;;;;5101008;28;20664;-77
2023/06/03 05:52:24;;;;;;;3.17;2.80;;;18.70;99.90;;;;;;5096074;28;20667;-77
2023/06/03 05:54:53;;;;;;;3.10;2.80;;;18.60;99.90;;;;;;5099804;28;20201;-78
2023/06/03 05:57:20;;;;;;;2.90;2.70;;;18.50;99.90;;;;;;5098629;28;20236;-77
2023/06/03 05:59:47;;;;;;;2.80;2.53;;;18.50;99.90;;;;;;5105845;28;20225;-78
2023/06/03 06:02:14;;;;;;;3.22;2.85;;;18.50;99.90;;;;;;5102061;28;20439;-78
2023/06/03 06:04:41;;;;;;;2.78;2.58;;;18.60;99.90;;;;;;5099373;27;20783;-77
2023/06/03 06:07:08;;;;;;;3.10;2.80;;;18.70;99.90;;;;;;5101889;27;20225;-78
2023/06/03 06:09:35;;;;;;;3.13;2.83;;;18.70;99.90;;;;;;5102254;27;20239;-77
2023/06/03 06:12:03;;;;;;;3.15;2.70;;;18.70;99.90;;;;;;5105648;27;20229;-78
2023/06/03 06:14:30;;;;;;;3.03;2.83;;;18.80;99.90;;;;;;5096933;28;20640;-77
2023/06/03 06:16:57;;;;;;;2.92;2.50;;;18.80;99.90;;;;;;5097176;28;20615;-76
2023/06/03 06:19:24;;;;;;;3.45;3.15;;;18.70;99.90;;;;;;5101860;28;20201;-78
2023/06/03 06:21:51;;;;;;;3.33;3.03;;;18.90;99.90;;;;;;5099127;28;20221;-77
2023/06/03 06:24:18;;;;;;;3.33;2.85;;;19.00;99.90;;;;;;5094051;28;20262;-77
2023/06/03 06:26:45;;;;;;;4.40;2.72;;;19.00;99.90;;;;;;5098750;28;20206;-77
2023/06/03 06:29:13;;;;;;;4.38;3.13;;;19.00;99.90;;;;;;5103788;28;20201;-77
2023/06/03 06:31:40;;;;;;;2.95;2.75;;;19.10;99.90;;;;;;5091885;28;20551;-77
2023/06/03 06:34:10;;;;;;;6.22;3.30;;;19.10;99.90;;;;;;5102352;28;20196;-77
2023/06/03 06:36:43;;;;;;;3.75;2.58;;;19.30;99.90;;;;;;5101434;27;20201;-77
2023/06/03 06:39:49;;;;;;;4.47;3.13;;;19.80;99.90;;;;;;5102075;28;20250;-77
2023/06/03 06:42:28;;;;;;;3.05;2.85;;;20.10;99.90;;;;;;5087672;28;20311;-77
2023/06/03 06:44:57;;;;;;;2.90;2.70;;;20.30;99.90;;;;;;5098163;28;20698;-78
2023/06/03 06:47:25;;;;;;;4.97;3.10;;;20.30;99.90;;;;;;5102535;28;20225;-77
2023/06/03 06:49:53;;;;;;;3.03;2.35;;;20.10;99.90;;;;;;5098731;28;20205;-77
2023/06/03 06:52:21;;;;;;;3.13;2.72;;;19.80;99.90;;;;;;5101956;28;20212;-76
2023/06/03 06:54:49;;;;;;;3.30;3.00;;;19.80;99.90;;;;;;5103078;28;20192;-77
2023/06/03 06:57:21;;;;;;;2.80;2.60;;;20.00;99.90;;;;;;5099043;28;20200;-77
2023/06/03 06:59:48;;;;;;;2.75;2.50;;;20.00;99.90;;;;;;5101051;28;20235;-78
2023/06/03 07:02:16;;;;;;;3.00;2.67;;;20.00;99.90;;;;;;5100821;28;20229;-76
2023/06/03 07:04:43;;;;;;;2.67;2.47;;;20.10;99.90;;;;;;5104272;28;20284;-77
2023/06/03 07:07:10;;;;;;;3.10;2.58;;;20.30;99.90;;;;;;5098353;28;20201;-77
2023/06/03 07:09:37;;;;;;;3.13;2.40;;;20.70;99.90;;;;;;5097264;28;20231;-78
2023/06/03 07:12:05;;;;;;;2.75;2.55;;;21.00;99.90;;;;;;5100345;28;20275;-77
2023/06/03 07:14:32;;;;;;;3.10;2.80;;;20.90;99.90;;;;;;5101008;28;20196;-77
2023/06/03 07:16:59;;;;;;;3.03;2.75;;;20.60;99.90;;;;;;5098683;28;20849;-77
2023/06/03 07:19:35;;;;;;;3.05;2.80;;;20.60;99.90;;;;;;5101800;28;20232;-77
2023/06/03 07:22:02;;;;;;;2.50;2.30;;;20.70;99.90;;;;;;5099599;28;20663;-78
2023/06/03 07:24:29;;;;;;;3.20;2.45;;;20.80;99.90;;;;;;5095769;28;20212;-78
2023/06/03 07:26:56;;;;;;;2.92;2.55;;;21.20;99.90;;;;;;5102725;28;20244;-77
2023/06/03 07:29:23;;;;;;;3.30;2.55;;;21.60;99.90;;;;;;5096160;28;20250;-77
2023/06/03 07:31:50;;;;;;;3.13;2.60;;;21.70;99.90;;;;;;5093588;28;20235;-77
2023/06/03 07:34:21;;;;;;;2.80;2.50;;;21.90;99.90;;;;;;5097360;28;20293;-78
2023/06/03 07:36:52;;;;;;;3.13;2.92;;;22.30;99.90;;;;;;5101625;28;20204;-77
2023/06/03 07:39:21;;;;;;;3.15;2.95;;;22.60;99.90;;;;;;5096999;28;20292;-77
2023/06/03 07:41:51;;;;;;;2.83;2.63;;;22.90;99.90;;;;;;5097310;28;20203;-78
2023/06/03 07:44:30;;;;;;;2.85;2.65;;;23.00;99.90;;;;;;5102515;28;20270;-79
2023/06/03 07:46:58;;;;;;;4.50;2.80;;;23.00;99.90;;;;;;5106925;28;20255;-78
2023/06/03 07:49:25;;;;;;;2.92;2.72;;;23.20;99.90;;;;;;5102782;28;20201;-78
2023/06/03 07:51:54;;;;;;;2.92;2.72;;;23.30;99.90;;;;;;5097292;28;20200;-77
2023/06/03 07:54:22;;;;;;;3.00;2.80;;;23.20;99.90;;;;;;5100929;28;20250;-77
2023/06/03 07:56:49;;;;;;;3.75;2.70;;;23.10;99.90;;;;;;5103644;28;20201;-78
2023/06/03 07:59:18;;;;;;;3.08;2.80;;;23.00;99.90;;;;;;5097328;28;20254;-78
2023/06/03 08:01:47;;;;;;;2.80;2.60;;;23.10;99.90;;;;;;5105280;28;20229;-78
2023/06/03 08:04:29;;;;;;;3.03;2.70;;;23.10;99.90;;;;;;5103699;28;20217;-78
2023/06/03 08:07:00;;;;;;;3.05;2.60;;;22.90;99.90;;;;;;5112737;28;20204;-77
2023/06/03 08:09:28;;;;;;;2.72;2.53;;;22.90;99.90;;;;;;5102262;28;20204;-77
2023/06/03 08:11:56;;;;;;;3.00;2.28;;;22.70;99.90;;;;;;5105642;28;20201;-78
2023/06/03 08:14:24;;;;;;;2.42;2.22;;;22.20;99.90;;;;;;5107788;27;20194;-77
2023/06/03 08:16:52;;;;;;;2.88;2.63;;;22.10;99.90;;;;;;5103655;28;20811;-78
2023/06/03 08:19:19;;;;;;;2.55;2.35;;;22.30;99.90;;;;;;5105613;27;20266;-78
2023/06/03 08:21:46;;;;;;;2.65;2.45;;;22.50;99.90;;;;;;5102119;28;20243;-77
2023/06/03 08:24:15;;;;;;;2.50;2.30;;;22.80;99.90;;;;;;5102656;28;20263;-77
2023/06/03 08:26:44;;;;;;;2.80;2.60;;;22.90;99.90;;;;;;5107948;28;20251;-78
2023/06/03 08:29:11;;;;;;;2.72;2.53;;;23.10;99.90;;;;;;5102895;28;20208;-78
2023/06/03 08:31:38;;;;;;;3.10;2.60;;;23.10;99.90;;;;;;5104756;28;20231;-78
2023/06/03 08:34:05;;;;;;;2.60;2.40;;;22.80;99.90;;;;;;5100074;28;20275;-78
2023/06/03 08:36:33;;;;;;;2.40;2.20;;;22.70;99.90;;;;;;5098323;28;20202;-78
2023/06/03 08:39:00;;;;;;;3.30;2.95;;;22.80;99.90;;;;;;5102236;28;20200;-78
2023/06/03 08:41:35;;;;;;;2.83;2.63;;;23.10;99.90;;;;;;5101214;28;20477;-78
2023/06/03 08:44:04;;;;;;;3.45;3.05;;;23.30;99.90;;;;;;5103119;28;20704;-77
2023/06/03 08:46:35;;;;;;;2.90;2.70;;;23.00;99.90;;;;;;5101037;28;20202;-78
2023/06/03 08:49:07;;;;;;;2.80;2.53;;;22.70;99.90;;;;;;5105371;28;20287;-78
2023/06/03 08:51:37;;;;;;;3.28;2.90;;;22.70;99.90;;;;;;5108295;28;20554;-78
2023/06/03 08:54:11;;;;;;;2.85;2.65;;;22.90;99.90;;;;;;5097453;28;20209;-77
2023/06/03 08:56:43;;;;;;;2.95;2.72;;;23.20;99.90;;;;;;5107363;28;20871;-77
2023/06/03 08:59:15;;;;;;;3.88;3.08;;;23.60;99.90;;;;;;5096370;28;20309;-78
2023/06/03 09:01:47;;;;;;;3.08;2.80;;;23.60;99.90;;;;;;5099578;27;20220;-77
2023/06/03 09:04:15;;;;;;;2.78;2.58;;;23.70;99.90;;;;;;5103076;28;20263;-78
2023/06/03 09:06:44;;;;;;;2.75;2.40;;;23.90;99.90;;;;;;5101773;28;20252;-79
2023/06/03 09:09:13;;;;;;;2.63;2.42;;;24.00;99.90;;;;;;5100161;27;20209;-78
2023/06/03 09:11:44;;;;;;;2.50;2.30;;;24.00;99.90;;;;;;5103201;28;20678;-78
2023/06/03 09:14:12;;;;;;;2.67;2.47;;;24.20;99.90;;;;;;5100364;27;20660;-77
2023/06/03 09:16:39;;;;;;;4.10;2.50;;;24.40;99.90;;;;;;5100398;27;20292;-77
2023/06/03 09:19:06;;;;;;;2.85;2.50;;;24.60;99.90;;;;;;5098900;28;20189;-78
2023/06/03 09:21:34;;;;;;;2.75;2.55;;;24.80;99.90;;;;;;5097000;28;20229;-78
2023/06/03 09:24:01;;;;;;;2.50;2.30;;;24.60;99.90;;;;;;5092370;28;20274;-78
2023/06/03 09:26:28;;;;;;;2.78;2.50;;;24.20;99.90;;;;;;5102676;28;20207;-77
2023/06/03 09:28:57;;;;;;;2.58;2.38;;;23.80;99.90;;;;;;5090704;28;20243;-78
2023/06/03 09:31:24;;;;;;;2.60;2.40;;;23.70;99.90;;;;;;5099531;28;20209;-77
2023/06/03 09:33:52;;;;;;;2.92;2.42;;;24.10;99.90;;;;;;5099465;28;20217;-79
2023/06/03 09:36:20;;;;;;;3.75;2.58;;;24.40;99.90;;;;;;5097986;28;20712;-77
2023/06/03 09:38:51;;;;;;;3.28;2.38;;;24.60;99.90;;;;;;5098141;28;20254;-78
2023/06/03 09:41:21;;;;;;;4.43;2.83;;;24.60;99.90;;;;;;5097687;28;20258;-77
2023/06/03 09:43:57;;;;;;;2.90;2.70;;;24.80;99.90;;;;;;5103621;28;20221;-78
2023/06/03 09:46:25;;;;;;;2.25;2.15;;;25.20;99.90;;;;;;5093049;28;20264;-78
2023/06/03 09:48:52;;;;;;;2.47;2.28;;;25.40;99.90;;;;;;5095588;28;20233;-78
2023/06/03 09:51:19;;;;;;;2.90;2.50;;;25.70;99.90;;;;;;5101116;28;20284;-78
2023/06/03 09:53:46;;;;;;;2.75;2.50;;;25.90;99.90;;;;;;5105066;27;20212;-77
2023/06/03 09:56:24;;;;;;;2.30;2.20;;;26.10;99.90;;;;;;5101104;28;20330;-77
2023/06/03 09:58:53;;;;;;;2.88;2.33;;;26.40;99.90;;;;;;5102826;28;20246;-76
2023/06/03 10:01:33;;;;;;;2.40;2.20;;;26.50;99.90;;;;;;5103298;28;20211;-78
2023/06/03 10:04:00;;;;;;;3.58;2.58;;;26.40;99.90;;;;;;5095304;28;20589;-77
2023/06/03 10:06:27;;;;;;;2.50;2.30;;;26.00;99.90;;;;;;5098072;28;20743;-77
2023/06/03 10:08:55;;;;;;;2.35;2.17;;;25.70;99.90;;;;;;5104904;27;20290;-78
2023/06/03 10:11:23;;;;;;;3.35;2.25;;;25.90;99.90;;;;;;5093958;28;20212;-77
2023/06/03 10:14:04;;;;;;;2.80;2.55;;;26.00;99.90;;;;;;5092829;28;20214;-77
2023/06/03 10:16:32;;;;;;;2.00;1.90;;;26.10;99.90;;;;;;5103438;28;20284;-78
2023/06/03 10:18:59;;;;;;;2.22;2.05;;;26.00;99.90;;;;;;5097882;28;20622;-77
2023/06/03 10:21:30;;;;;;;2.60;2.40;;;26.30;99.90;;;;;;5096264;28;20288;-78
2023/06/03 10:24:01;;;;;;;2.30;2.20;;;26.70;99.90;;;;;;5095231;28;20221;-78
2023/06/03 10:26:30;;;;;;;2.50;2.30;;;26.90;99.90;;;;;;5098245;28;20201;-77
2023/06/03 10:28:59;;;;;;;2.20;2.00;;;26.70;99.90;;;;;;5096976;28;20240;-78
2023/06/03 10:31:28;;;;;;;2.45;2.25;;;26.70;99.90;;;;;;5099200;28;20193;-78
2023/06/03 10:33:57;;;;;;;2.63;1.98;;;26.80;99.90;;;;;;5093441;28;20290;-78
2023/06/03 10:36:26;;;;;;;2.80;2.60;;;27.00;99.90;;;;;;5100495;27;20200;-77
2023/06/03 10:38:53;;;;;;;2.65;2.45;;;27.20;99.90;;;;;;5091877;28;20197;-78
2023/06/03 10:41:21;;;;;;;2.83;2.53;;;27.10;99.90;;;;;;5097106;28;20201;-77
2023/06/03 10:43:48;;;;;;;2.60;2.40;;;26.90;99.90;;;;;;5095949;27;20763;-78
2023/06/03 10:46:16;;;;;;;2.70;2.50;;;27.20;99.90;;;;;;5092269;28;20206;-79
2023/06/03 10:48:46;;;;;;;3.50;2.53;;;27.50;99.90;;;;;;5095465;27;20251;-77
2023/06/03 10:51:35;;;;;;;3.65;2.95;;;27.40;99.90;;;;;;5098976;28;20239;-78
2023/06/03 10:54:18;;;;;;;4.32;3.00;;;26.80;99.90;;;;;;5093915;28;20217;-77
2023/06/03 10:56:51;;;;;;;4.50;2.80;;;26.40;99.90;;;;;;5095912;28;20257;-77
2023/06/03 10:59:21;;;;;;;3.90;2.90;;;26.00;99.90;;;;;;5095155;28;20201;-77
2023/06/03 11:02:04;;;;;;;2.22;2.10;;;25.70;99.90;;;;;;5096313;28;20658;-78
2023/06/03 11:04:33;;;;;;;3.42;2.10;;;26.00;99.90;;;;;;5103219;27;20249;-77
2023/06/03 11:07:02;;;;;;;2.40;2.20;;;26.20;99.90;;;;;;5092947;28;20301;-78
2023/06/03 11:09:35;;;;;;;2.58;1.88;;;26.40;99.90;;;;;;5096052;28;20340;-77
2023/06/03 11:12:09;;;;;;;2.03;1.90;;;26.50;99.90;;;;;;5095400;28;20204;-77
2023/06/03 11:14:56;;;;;;;2.47;2.28;;;26.70;99.90;;;;;;5097972;27;20917;-77
2023/06/03 11:17:27;;;;;;;2.03;1.92;;;26.70;99.90;;;;;;5096297;28;20216;-78
2023/06/03 11:19:57;;;;;;;2.50;2.30;;;26.80;99.90;;;;;;5101151;27;20204;-77
2023/06/03 11:22:44;;;;;;;2.65;2.45;;;26.90;99.90;;;;;;5093097;28;20260;-79
2023/06/03 11:25:31;;;;;;;2.67;2.47;;;26.90;99.90;;;;;;5107722;28;20253;-77
2023/06/03 11:28:34;;;;;;;2.80;2.50;;;27.00;99.90;;;;;;5097915;28;20212;-78
2023/06/03 11:31:04;;;;;;;2.80;2.60;;;27.00;99.90;;;;;;5098928;28;20193;-79
2023/06/03 11:33:31;;;;;;;2.60;2.40;;;26.90;99.90;;;;;;5099427;28;20311;-78
2023/06/03 11:35:58;;;;;;;2.85;2.47;;;26.80;99.90;;;;;;5103128;28;20193;-79
2023/06/03 11:38:59;;;;;;;2.88;2.40;;;26.90;99.90;;;;;;5099657;28;20652;-79
2023/06/03 11:42:02;;;;;;;2.55;2.35;;;26.80;99.90;;;;;;5091681;28;20257;-79
2023/06/03 11:44:29;;;;;;;3.60;2.70;;;26.90;99.90;;;;;;5103805;28;20216;-79
2023/06/03 11:46:56;;;;;;;2.83;2.63;;;26.90;99.90;;;;;;5099039;28;20202;-80
2023/06/03 11:49:23;;;;;;;2.75;2.55;;;26.80;99.90;;;;;;5099493;28;20507;-79
2023/06/03 11:51:53;;;;;;;2.42;2.22;;;27.00;99.90;;;;;;5100605;28;20243;-78
2023/06/03 11:54:21;;;;;;;5.47;2.80;;;27.10;99.90;;;;;;5094099;28;20241;-77
2023/06/03 11:56:50;;;;;;;2.60;2.40;;;27.00;99.90;;;;;;5100775;28;20246;-78
2023/06/03 11:59:21;;;;;;;2.90;2.70;;;26.80;99.90;;;;;;5090945;28;20201;-77
2023/06/03 12:01:59;;;;;;;2.90;2.03;;;27.10;99.90;;;;;;5096151;28;20200;-79
2023/06/03 12:04:26;;;;;;;2.42;2.22;;;27.00;99.90;;;;;;5102975;28;20214;-79
2023/06/03 12:06:54;;;;;;;2.67;2.47;;;26.60;99.90;;;;;;5105243;28;20196;-78
2023/06/03 12:09:24;;;;;;;2.35;2.15;;;26.40;99.90;;;;;;5098367;28;20205;-80
2023/06/03 12:11:51;;;;;;;2.17;2.08;;;26.30;99.90;;;;;;5093952;28;20621;-79
2023/06/03 12:14:32;;;;;;;2.75;2.55;;;26.40;99.90;;;;;;5098121;28;20255;-79
2023/06/03 12:17:12;;;;;;;2.58;2.38;;;26.60;99.90;;;;;;5099888;28;20202;-78
2023/06/03 12:19:41;;;;;;;3.03;2.80;;;26.70;99.90;;;;;;5111055;28;20270;-79
2023/06/03 12:22:09;;;;;;;2.75;2.40;;;26.70;99.90;;;;;;5100547;28;20240;-78
2023/06/03 12:24:42;;;;;;;2.80;2.60;;;26.60;99.90;;;;;;5095554;28;20304;-79
2023/06/03 12:27:13;;;;;;;2.92;2.60;;;26.60;99.90;;;;;;5098726;28;20240;-78
2023/06/03 12:29:45;;;;;;;2.42;2.22;;;26.50;99.90;;;;;;5106591;28;20189;-79
2023/06/03 12:32:12;;;;;;;2.60;2.40;;;26.60;99.90;;;;;;5110164;28;20233;-79
2023/06/03 12:34:39;;;;;;;2.53;2.30;;;26.60;99.90;;;;;;5108363;27;20197;-79
2023/06/03 12:37:07;;;;;;;2.80;2.60;;;26.60;99.90;;;;;;5104318;27;20263;-80
2023/06/03 12:39:47;;;;;;;2.85;2.65;;;26.70;99.90;;;;;;5109556;27;20287;-79
2023/06/03 12:42:15;;;;;;;3.58;2.58;;;26.70;99.90;;;;;;5100313;27;20293;-79
2023/06/03 12:44:47;;;;;;;2.50;2.30;;;26.70;99.90;;;;;;5108710;28;20213;-79
2023/06/03 12:47:16;;;;;;;2.67;2.47;;;26.90;99.90;;;;;;5097508;28;20193;-78
2023/06/03 12:49:43;;;;;;;2.90;2.70;;;26.90;99.90;;;;;;5104062;28;20194;-79
2023/06/03 12:52:16;;;;;;;2.60;2.40;;;26.70;99.90;;;;;;5103187;28;20225;-79
2023/06/03 12:54:47;;;;;;;3.83;2.80;;;26.60;99.90;;;;;;5102632;27;20200;-79
2023/06/03 12:57:14;;;;;;;4.80;2.78;;;26.60;99.90;;;;;;5098915;28;20201;-78
2023/06/03 13:00:01;;;;;;;2.60;2.40;;;26.70;99.90;;;;;;5103233;27;20198;-80